createdAt,value
2023-05-19T00:00:25.425Z,656.00
2023-05-19T00:01:25.428Z,664.00
2023-05-19T00:02:25.548Z,664.00
2023-05-19T00:03:25.633Z,672.00
2023-05-19T00:04:25.601Z,660.00
2023-05-19T00:05:25.673Z,659.00
2023-05-19T00:06:25.714Z,678.00
2023-05-19T00:07:25.730Z,680.00
2023-05-19T00:08:25.803Z,690.00
2023-05-19T00:09:25.869Z,693.00
2023-05-19T00:10:25.914Z,664.00
2023-05-19T00:11:25.958Z,660.00
2023-05-19T00:12:26.009Z,674.00
2023-05-19T00:13:26.088Z,665.00
2023-05-19T00:14:26.088Z,672.00
2023-05-19T00:15:26.171Z,682.00
2023-05-19T00:16:26.290Z,682.00
2023-05-19T00:17:26.366Z,695.00
2023-05-19T00:18:26.316Z,671.00
2023-05-19T00:19:26.451Z,664.00
2023-05-19T00:20:26.459Z,664.00
2023-05-19T00:21:26.403Z,653.00
2023-05-19T00:22:26.482Z,660.00
2023-05-19T00:23:26.526Z,657.00
2023-05-19T00:24:26.612Z,653.00
2023-05-19T00:25:26.604Z,661.00
2023-05-19T00:26:26.654Z,655.00
2023-05-19T00:27:26.703Z,675.00
2023-05-19T00:28:26.779Z,694.00
2023-05-19T00:29:26.839Z,694.00
2023-05-19T00:30:26.853Z,685.00
2023-05-19T00:31:26.946Z,679.00
2023-05-19T00:32:27.019Z,680.00
2023-05-19T00:33:27.044Z,691.00
2023-05-19T00:34:27.084Z,708.00
2023-05-19T00:35:27.149Z,708.00
2023-05-19T00:36:27.191Z,674.00
2023-05-19T00:37:27.266Z,660.00
2023-05-19T00:38:27.276Z,671.00
2023-05-19T00:39:27.359Z,684.00
2023-05-19T00:40:27.412Z,697.00
2023-05-19T00:41:27.477Z,719.00
2023-05-19T00:42:27.519Z,690.00
2023-05-19T00:43:27.556Z,681.00
2023-05-19T00:44:27.620Z,673.00
2023-05-19T00:45:27.653Z,707.00
2023-05-19T00:46:27.714Z,703.00
2023-05-19T00:47:27.811Z,753.00
2023-05-19T00:48:27.800Z,771.00
2023-05-19T00:49:27.878Z,787.00
2023-05-19T00:50:27.964Z,795.00
2023-05-19T00:51:28.002Z,776.00
2023-05-19T00:52:28.030Z,763.00
2023-05-19T00:53:28.088Z,770.00
2023-05-19T00:54:28.194Z,772.00
2023-05-19T00:55:28.245Z,774.00
2023-05-19T00:56:28.257Z,767.00
2023-05-19T00:57:28.321Z,770.00
2023-05-19T00:58:28.336Z,755.00
2023-05-19T00:59:28.392Z,754.00
2023-05-19T01:00:28.485Z,769.00
2023-05-19T01:01:28.613Z,783.00
2023-05-19T01:02:28.677Z,761.00
2023-05-19T01:03:28.659Z,788.00
2023-05-19T01:04:28.684Z,774.00
2023-05-19T01:05:28.737Z,780.00
2023-05-19T01:06:28.801Z,772.00
2023-05-19T01:07:28.825Z,777.00
2023-05-19T01:08:28.917Z,791.00
2023-05-19T01:09:28.956Z,818.00
2023-05-19T01:10:29.025Z,811.00
2023-05-19T01:11:29.040Z,811.00
2023-05-19T01:12:29.089Z,806.00
2023-05-19T01:13:29.175Z,814.00
2023-05-19T01:14:29.222Z,816.00
2023-05-19T01:15:29.253Z,829.00
2023-05-19T01:16:29.393Z,813.00
2023-05-19T01:17:29.371Z,795.00
2023-05-19T01:18:29.393Z,804.00
2023-05-19T01:19:29.450Z,805.00
2023-05-19T01:20:29.575Z,826.00
2023-05-19T01:21:29.554Z,799.00
2023-05-19T01:22:29.615Z,823.00
2023-05-19T01:23:29.692Z,817.00
2023-05-19T01:24:29.730Z,806.00
2023-05-19T01:25:29.773Z,797.00
2023-05-19T01:26:29.824Z,809.00
2023-05-19T01:27:29.912Z,793.00
2023-05-19T01:28:29.961Z,803.00
2023-05-19T01:29:29.973Z,807.00
2023-05-19T01:30:30.222Z,813.00
2023-05-19T01:31:30.112Z,857.00
2023-05-19T01:32:30.169Z,880.00
2023-05-19T01:33:30.163Z,905.00
2023-05-19T01:34:30.228Z,949.00
2023-05-19T01:35:30.283Z,1000.00
2023-05-19T01:36:30.434Z,986.00
2023-05-19T01:37:30.348Z,920.00
2023-05-19T01:38:30.438Z,961.00
2023-05-19T01:39:30.440Z,1036.00
2023-05-19T01:40:30.604Z,1089.00
2023-05-19T01:41:30.546Z,1130.00
2023-05-19T01:42:30.562Z,1160.00
2023-05-19T01:43:30.617Z,1136.00
2023-05-19T01:44:30.685Z,1179.00
2023-05-19T01:45:30.724Z,1183.00
2023-05-19T01:46:30.842Z,1158.00
2023-05-19T01:47:30.830Z,1148.00
2023-05-19T01:48:30.866Z,1132.00
2023-05-19T01:49:30.879Z,1095.00
2023-05-19T01:50:31.057Z,1101.00
2023-05-19T01:51:30.931Z,1087.00
2023-05-19T01:52:30.968Z,1073.00
2023-05-19T01:53:31.025Z,1072.00
2023-05-19T01:54:31.033Z,1057.00
2023-05-19T01:55:31.068Z,1074.00
2023-05-19T01:56:31.085Z,1085.00
2023-05-19T01:57:31.097Z,1084.00
2023-05-19T01:58:31.132Z,1068.00
2023-05-19T01:59:31.142Z,1072.00
2023-05-19T02:00:31.379Z,1072.00
2023-05-19T02:01:31.176Z,1068.00
2023-05-19T02:02:31.168Z,1085.00
2023-05-19T02:03:31.189Z,1084.00
2023-05-19T02:04:31.283Z,1092.00
2023-05-19T02:05:31.199Z,1131.00
2023-05-19T02:06:31.224Z,1105.00
2023-05-19T02:07:31.214Z,1119.00
2023-05-19T02:08:31.240Z,1127.00
2023-05-19T02:09:31.209Z,1147.00
2023-05-19T02:10:31.448Z,1135.00
2023-05-19T02:11:31.210Z,1143.00
2023-05-19T02:12:31.222Z,1113.00
2023-05-19T02:13:31.275Z,1090.00
2023-05-19T02:14:31.270Z,1108.00
2023-05-19T02:15:31.257Z,1119.00
2023-05-19T02:16:31.261Z,1118.00
2023-05-19T02:17:31.275Z,1137.00
2023-05-19T02:18:31.249Z,1155.00
2023-05-19T02:19:31.275Z,1148.00
2023-05-19T02:20:31.491Z,1149.00
2023-05-19T02:21:31.269Z,1143.00
2023-05-19T02:22:31.259Z,1137.00
2023-05-19T02:23:31.272Z,1180.00
2023-05-19T02:24:31.296Z,1176.00
2023-05-19T02:25:31.326Z,1135.00
2023-05-19T02:26:31.281Z,1159.00
2023-05-19T02:27:31.299Z,1160.00
2023-05-19T02:28:31.322Z,1174.00
2023-05-19T02:29:31.319Z,1157.00
2023-05-19T02:30:31.473Z,1176.00
2023-05-19T02:31:31.358Z,1180.00
2023-05-19T02:32:31.394Z,1191.00
2023-05-19T02:33:31.399Z,1224.00
2023-05-19T02:34:31.409Z,1191.00
2023-05-19T02:35:31.410Z,1200.00
2023-05-19T02:36:31.454Z,1222.00
2023-05-19T02:37:31.496Z,1219.00
2023-05-19T02:38:31.490Z,1222.00
2023-05-19T02:39:31.540Z,1234.00
2023-05-19T02:40:31.779Z,1237.00
2023-05-19T02:41:31.592Z,1254.00
2023-05-19T02:42:31.660Z,1264.00
2023-05-19T02:43:31.654Z,1279.00
2023-05-19T02:44:31.658Z,1272.00
2023-05-19T02:45:31.732Z,1268.00
2023-05-19T02:46:31.778Z,1271.00
2023-05-19T02:47:31.847Z,1279.00
2023-05-19T02:48:31.871Z,1294.00
2023-05-19T02:49:31.976Z,1297.00
2023-05-19T02:50:32.155Z,1283.00
2023-05-19T02:51:32.027Z,1282.00
2023-05-19T02:52:32.053Z,1298.00
2023-05-19T02:53:32.111Z,1307.00
2023-05-19T02:54:32.163Z,1293.00
2023-05-19T02:55:32.204Z,1286.00
2023-05-19T02:56:32.223Z,1298.00
2023-05-19T02:57:32.260Z,1263.00
2023-05-19T02:58:32.309Z,1302.00
2023-05-19T02:59:32.366Z,1297.00
2023-05-19T03:00:32.767Z,1279.00
2023-05-19T03:01:32.418Z,1315.00
2023-05-19T03:02:32.540Z,1278.00
2023-05-19T03:03:32.557Z,1266.00
2023-05-19T03:04:32.532Z,1279.00
2023-05-19T03:05:32.579Z,1297.00
2023-05-19T03:06:32.633Z,1295.00
2023-05-19T03:07:32.693Z,1293.00
2023-05-19T03:08:32.727Z,1292.00
2023-05-19T03:09:32.754Z,1280.00
2023-05-19T03:10:32.972Z,1298.00
2023-05-19T03:11:32.877Z,1307.00
2023-05-19T03:12:32.959Z,1295.00
2023-05-19T03:13:33.007Z,1320.00
2023-05-19T03:14:33.094Z,1312.00
2023-05-19T03:15:33.162Z,1315.00
2023-05-19T03:16:33.265Z,1316.00
2023-05-19T03:17:33.372Z,1305.00
2023-05-19T03:18:33.297Z,1316.00
2023-05-19T03:19:33.372Z,1311.00
2023-05-19T03:20:33.651Z,1307.00
2023-05-19T03:21:33.503Z,1305.00
2023-05-19T03:22:33.579Z,1296.00
2023-05-19T03:23:33.667Z,1297.00
2023-05-19T03:24:33.720Z,1303.00
2023-05-19T03:25:33.752Z,1303.00
2023-05-19T03:26:33.826Z,1291.00
2023-05-19T03:27:33.876Z,1284.00
2023-05-19T03:28:33.929Z,1280.00
2023-05-19T03:29:34.001Z,1290.00
2023-05-19T03:30:34.304Z,1281.00
2023-05-19T03:31:34.118Z,1288.00
2023-05-19T03:32:34.246Z,1295.00
2023-05-19T03:33:34.293Z,1282.00
2023-05-19T03:34:34.322Z,1285.00
2023-05-19T03:35:34.454Z,1275.00
2023-05-19T03:36:34.428Z,1280.00
2023-05-19T03:37:34.477Z,1300.00
2023-05-19T03:38:34.532Z,1298.00
2023-05-19T03:39:34.617Z,1299.00
2023-05-19T03:40:34.917Z,1278.00
2023-05-19T03:41:34.709Z,1292.00
2023-05-19T03:42:34.779Z,1314.00
2023-05-19T03:43:34.854Z,1286.00
2023-05-19T03:44:34.906Z,1281.00
2023-05-19T03:45:35.018Z,1285.00
2023-05-19T03:46:35.027Z,1288.00
2023-05-19T03:47:35.098Z,1304.00
2023-05-19T03:48:35.116Z,1296.00
2023-05-19T03:49:35.175Z,1287.00
2023-05-19T03:50:35.256Z,1291.00
2023-05-19T03:51:35.312Z,1298.00
2023-05-19T03:52:35.377Z,1293.00
2023-05-19T03:53:35.401Z,1288.00
2023-05-19T03:54:35.471Z,1295.00
2023-05-19T03:55:35.579Z,1307.00
2023-05-19T03:56:35.580Z,1287.00
2023-05-19T03:57:35.673Z,1292.00
2023-05-19T03:58:35.742Z,1294.00
2023-05-19T03:59:35.792Z,1277.00
2023-05-19T04:00:36.014Z,1283.00
2023-05-19T04:01:35.890Z,1299.00
2023-05-19T04:02:36.008Z,1292.00
2023-05-19T04:03:36.035Z,1314.00
2023-05-19T04:04:36.064Z,1299.00
2023-05-19T04:05:36.122Z,1303.00
2023-05-19T04:06:36.150Z,1303.00
2023-05-19T04:07:36.251Z,1292.00
2023-05-19T04:08:36.315Z,1305.00
2023-05-19T04:09:36.355Z,1309.00
2023-05-19T04:10:36.395Z,1296.00
2023-05-19T04:11:36.414Z,1301.00
2023-05-19T04:12:36.509Z,1305.00
2023-05-19T04:13:36.558Z,1293.00
2023-05-19T04:14:36.602Z,1315.00
2023-05-19T04:15:36.749Z,1298.00
2023-05-19T04:16:36.749Z,1296.00
2023-05-19T04:17:36.812Z,1304.00
2023-05-19T04:18:36.865Z,1308.00
2023-05-19T04:19:36.888Z,1340.00
2023-05-19T04:20:36.941Z,1315.00
2023-05-19T04:21:36.989Z,1316.00
2023-05-19T04:22:37.038Z,1315.00
2023-05-19T04:23:37.089Z,1325.00
2023-05-19T04:24:37.132Z,1313.00
2023-05-19T04:25:37.527Z,1321.00
2023-05-19T04:26:37.227Z,1329.00
2023-05-19T04:27:37.293Z,1330.00
2023-05-19T04:28:37.345Z,1312.00
2023-05-19T04:29:37.372Z,1308.00
2023-05-19T04:30:37.387Z,1301.00
2023-05-19T04:31:37.505Z,1304.00
2023-05-19T04:32:37.754Z,1310.00
2023-05-19T04:33:37.511Z,1319.00
2023-05-19T04:34:37.506Z,1305.00
2023-05-19T04:35:37.514Z,1299.00
2023-05-19T04:36:37.553Z,1294.00
2023-05-19T04:37:37.592Z,1296.00
2023-05-19T04:38:37.688Z,1292.00
2023-05-19T04:39:37.713Z,1291.00
2023-05-19T04:40:37.768Z,1294.00
2023-05-19T04:41:37.828Z,1288.00
2023-05-19T04:42:37.843Z,1279.00
2023-05-19T04:43:37.903Z,1278.00
2023-05-19T04:44:37.955Z,1273.00
2023-05-19T04:45:38.003Z,1271.00
2023-05-19T04:46:38.113Z,1252.00
2023-05-19T04:47:38.162Z,1246.00
2023-05-19T04:48:38.134Z,1251.00
2023-05-19T04:49:38.190Z,1256.00
2023-05-19T04:50:38.274Z,1250.00
2023-05-19T04:51:38.311Z,1229.00
2023-05-19T04:52:38.345Z,1235.00
2023-05-19T04:53:38.420Z,1248.00
2023-05-19T04:54:38.476Z,1243.00
2023-05-19T04:55:38.489Z,1242.00
2023-05-19T04:56:38.580Z,1239.00
2023-05-19T04:57:38.634Z,1224.00
2023-05-19T04:58:39.700Z,1215.00
2023-05-19T04:59:38.662Z,1215.00
2023-05-19T05:00:46.104Z,1217.00
2023-05-19T05:01:38.679Z,1220.00
2023-05-19T05:02:38.706Z,1222.00
2023-05-19T05:03:38.818Z,1227.00
2023-05-19T05:04:38.681Z,1229.00
2023-05-19T05:05:38.665Z,1239.00
2023-05-19T05:06:38.648Z,1221.00
2023-05-19T05:07:38.643Z,1224.00
2023-05-19T05:08:38.634Z,1206.00
2023-05-19T05:09:38.637Z,1205.00
2023-05-19T05:10:38.612Z,1209.00
2023-05-19T05:11:38.581Z,1204.00
2023-05-19T05:12:38.592Z,1200.00
2023-05-19T05:13:38.594Z,1221.00
2023-05-19T05:14:38.564Z,1217.00
2023-05-19T05:15:38.575Z,1176.00
2023-05-19T05:16:38.623Z,1158.00
2023-05-19T05:17:38.559Z,1161.00
2023-05-19T05:18:38.561Z,1130.00
2023-05-19T05:19:38.608Z,1140.00
2023-05-19T05:20:38.647Z,1166.00
2023-05-19T05:21:38.725Z,1170.00
2023-05-19T05:22:38.807Z,1147.00
2023-05-19T05:23:38.828Z,1123.00
2023-05-19T05:24:38.909Z,1109.00
2023-05-19T05:25:38.960Z,1133.00
2023-05-19T05:26:39.032Z,1120.00
2023-05-19T05:27:39.105Z,1097.00
2023-05-19T05:28:39.183Z,1092.00
2023-05-19T05:29:39.211Z,1101.00
2023-05-19T05:30:39.286Z,1097.00
2023-05-19T05:31:39.378Z,1088.00
2023-05-19T05:32:39.484Z,1078.00
2023-05-19T05:33:39.483Z,1073.00
2023-05-19T05:34:39.486Z,1077.00
2023-05-19T05:35:39.559Z,1052.00
2023-05-19T05:36:39.651Z,1085.00
2023-05-19T05:37:39.699Z,1069.00
2023-05-19T05:38:39.723Z,1067.00
2023-05-19T05:39:39.803Z,1049.00
2023-05-19T05:40:39.873Z,996.00
2023-05-19T05:41:39.892Z,1014.00
2023-05-19T05:42:39.940Z,1030.00
2023-05-19T05:43:40.006Z,985.00
2023-05-19T05:44:40.055Z,1025.00
2023-05-19T05:45:47.099Z,1056.00
2023-05-19T05:46:40.037Z,1057.00
2023-05-19T05:47:40.081Z,1059.00
2023-05-19T05:48:40.018Z,1041.00
2023-05-19T05:49:40.042Z,1053.00
2023-05-19T05:50:40.024Z,1037.00
2023-05-19T05:51:40.707Z,1025.00
2023-05-19T05:52:40.007Z,997.00
2023-05-19T05:53:40.025Z,997.00
2023-05-19T05:54:40.001Z,1013.00
2023-05-19T05:55:40.037Z,1060.00
2023-05-19T05:56:40.003Z,1055.00
2023-05-19T05:57:39.982Z,1038.00
2023-05-19T05:58:40.002Z,1003.00
2023-05-19T05:59:39.963Z,1002.00
2023-05-19T06:00:39.974Z,1054.00
2023-05-19T06:01:39.993Z,1066.00
2023-05-19T06:02:40.064Z,1062.00
2023-05-19T06:03:40.043Z,1028.00
2023-05-19T06:04:39.949Z,1018.00
2023-05-19T06:05:39.991Z,1051.00
2023-05-19T06:06:39.955Z,1074.00
2023-05-19T06:07:39.917Z,1090.00
2023-05-19T06:08:39.892Z,1039.00
2023-05-19T06:09:39.915Z,1084.00
2023-05-19T06:10:39.914Z,996.00
2023-05-19T06:11:39.877Z,1024.00
2023-05-19T06:12:39.905Z,1099.00
2023-05-19T06:13:39.989Z,1109.00
2023-05-19T06:14:39.867Z,1066.00
2023-05-19T06:15:39.897Z,1074.00
2023-05-19T06:16:40.056Z,1055.00
2023-05-19T06:17:40.647Z,1069.00
2023-05-19T06:18:39.908Z,1103.00
2023-05-19T06:19:39.838Z,1118.00
2023-05-19T06:20:39.851Z,1108.00
2023-05-19T06:21:39.844Z,1098.00
2023-05-19T06:22:39.825Z,1100.00
2023-05-19T06:23:39.822Z,1118.00
2023-05-19T06:24:39.845Z,1173.00
2023-05-19T06:25:39.823Z,1202.00
2023-05-19T06:26:39.814Z,1186.00
2023-05-19T06:27:39.807Z,1182.00
2023-05-19T06:28:39.784Z,1178.00
2023-05-19T06:29:39.798Z,1218.00
2023-05-19T06:30:39.764Z,1212.00
2023-05-19T06:31:39.794Z,1204.00
2023-05-19T06:32:39.797Z,1183.00
2023-05-19T06:33:39.747Z,1198.00
2023-05-19T06:34:39.741Z,1190.00
2023-05-19T06:35:39.768Z,1209.00
2023-05-19T06:36:39.765Z,1142.00
2023-05-19T06:37:39.795Z,1182.00
2023-05-19T06:38:39.788Z,1218.00
2023-05-19T06:39:39.818Z,1245.00
2023-05-19T06:40:39.808Z,1184.00
2023-05-19T06:41:39.815Z,1143.00
2023-05-19T06:42:39.812Z,1102.00
2023-05-19T06:43:39.796Z,1108.00
2023-05-19T06:44:39.799Z,1100.00
2023-05-19T06:45:39.799Z,1072.00
2023-05-19T06:46:39.886Z,1095.00
2023-05-19T06:47:39.862Z,1062.00
2023-05-19T06:48:39.804Z,1091.00
2023-05-19T06:49:39.811Z,1084.00
2023-05-19T06:50:39.845Z,1153.00
2023-05-19T06:51:39.832Z,1125.00
2023-05-19T06:52:40.593Z,1074.00
2023-05-19T06:53:39.816Z,1032.00
2023-05-19T06:54:39.827Z,1035.00
2023-05-19T06:55:50.708Z,1015.00
2023-05-19T06:56:40.826Z,1016.00
2023-05-19T06:57:39.818Z,1020.00
2023-05-19T06:58:39.825Z,1016.00
2023-05-19T06:59:39.798Z,971.00
2023-05-19T07:00:39.809Z,982.00
2023-05-19T07:01:39.847Z,1026.00
2023-05-19T07:02:39.834Z,994.00
2023-05-19T07:03:39.860Z,930.00
2023-05-19T07:04:39.766Z,957.00
2023-05-19T07:05:39.804Z,1024.00
2023-05-19T07:06:39.752Z,1068.00
2023-05-19T07:07:39.739Z,1080.00
2023-05-19T07:08:39.753Z,1117.00
2023-05-19T07:09:39.745Z,1033.00
2023-05-19T07:10:39.745Z,1012.00
2023-05-19T07:11:39.729Z,1034.00
2023-05-19T07:12:39.729Z,1028.00
2023-05-19T07:13:39.738Z,954.00
2023-05-19T07:14:39.737Z,1013.00
2023-05-19T07:15:39.699Z,1054.00
2023-05-19T07:16:39.713Z,1033.00
2023-05-19T07:17:39.727Z,1014.00
2023-05-19T07:18:39.691Z,969.00
2023-05-19T07:19:39.683Z,992.00
2023-05-19T07:20:39.694Z,1016.00
2023-05-19T07:21:39.668Z,998.00
2023-05-19T07:22:39.653Z,958.00
2023-05-19T07:23:39.686Z,943.00
2023-05-19T07:24:39.640Z,930.00
2023-05-19T07:25:39.657Z,942.00
2023-05-19T07:26:39.640Z,965.00
2023-05-19T07:27:39.641Z,992.00
2023-05-19T07:28:41.426Z,972.00
2023-05-19T07:29:39.641Z,875.00
2023-05-19T07:30:39.581Z,844.00
2023-05-19T07:31:39.629Z,882.00
2023-05-19T07:32:39.638Z,790.00
2023-05-19T07:33:39.581Z,794.00
2023-05-19T07:34:39.611Z,807.00
2023-05-19T07:35:39.588Z,742.00
2023-05-19T07:36:39.633Z,816.00
2023-05-19T07:37:39.622Z,862.00
2023-05-19T07:38:39.635Z,833.00
2023-05-19T07:39:39.610Z,866.00
2023-05-19T07:40:39.622Z,868.00
2023-05-19T07:41:39.629Z,920.00
2023-05-19T07:42:39.630Z,839.00
2023-05-19T07:43:39.589Z,857.00
2023-05-19T07:44:39.638Z,835.00
2023-05-19T07:45:39.636Z,777.00
2023-05-19T07:46:39.701Z,806.00
2023-05-19T07:47:39.705Z,877.00
2023-05-19T07:48:39.678Z,852.00
2023-05-19T07:49:39.636Z,763.00
2023-05-19T07:50:39.684Z,763.00
2023-05-19T07:51:39.689Z,674.00
2023-05-19T07:52:39.631Z,638.00
2023-05-19T07:53:39.653Z,655.00
2023-05-19T07:54:39.636Z,640.00
2023-05-19T07:55:39.655Z,626.00
2023-05-19T07:56:39.721Z,691.00
2023-05-19T07:57:39.674Z,744.00
2023-05-19T07:58:39.673Z,842.00
2023-05-19T07:59:39.643Z,878.00
2023-05-19T08:00:39.691Z,890.00
2023-05-19T08:01:39.653Z,782.00
2023-05-19T08:02:39.801Z,729.00
2023-05-19T08:03:39.825Z,711.00
2023-05-19T08:04:39.706Z,727.00
2023-05-19T08:05:39.677Z,791.00
2023-05-19T08:06:39.691Z,773.00
2023-05-19T08:07:39.707Z,734.00
2023-05-19T08:08:39.707Z,702.00
2023-05-19T08:09:39.689Z,808.00
2023-05-19T08:10:39.725Z,850.00
2023-05-19T08:11:39.735Z,828.00
2023-05-19T08:12:39.733Z,796.00
2023-05-19T08:13:39.709Z,724.00
2023-05-19T08:14:39.763Z,690.00
2023-05-19T08:15:39.767Z,763.00
2023-05-19T08:16:39.770Z,789.00
2023-05-19T08:17:39.773Z,725.00
2023-05-19T08:18:39.745Z,709.00
2023-05-19T08:19:39.734Z,764.00
2023-05-19T08:20:39.742Z,705.00
2023-05-19T08:21:39.740Z,699.00
2023-05-19T08:22:39.716Z,696.00
2023-05-19T08:23:39.714Z,743.00
2023-05-19T08:24:39.720Z,774.00
2023-05-19T08:25:39.728Z,738.00
2023-05-19T08:26:39.791Z,677.00
2023-05-19T08:27:39.902Z,646.00
2023-05-19T08:28:39.891Z,639.00
2023-05-19T08:29:39.964Z,634.00
2023-05-19T08:30:39.992Z,658.00
2023-05-19T08:31:40.114Z,626.00
2023-05-19T08:32:40.138Z,622.00
2023-05-19T08:33:40.147Z,647.00
2023-05-19T08:34:40.238Z,702.00
2023-05-19T08:35:40.327Z,727.00
2023-05-19T08:36:40.308Z,757.00
2023-05-19T08:37:40.353Z,728.00
2023-05-19T08:38:40.375Z,715.00
2023-05-19T08:39:40.396Z,645.00
2023-05-19T08:40:40.403Z,642.00
2023-05-19T08:41:40.464Z,661.00
2023-05-19T08:42:40.489Z,688.00
2023-05-19T08:43:40.566Z,725.00
2023-05-19T08:44:40.579Z,744.00
2023-05-19T08:45:40.632Z,781.00
2023-05-19T08:46:40.771Z,801.00
2023-05-19T08:47:40.662Z,773.00
2023-05-19T08:48:40.725Z,716.00
2023-05-19T08:49:40.720Z,680.00
2023-05-19T08:50:40.757Z,727.00
2023-05-19T08:51:40.788Z,760.00
2023-05-19T08:52:40.843Z,762.00
2023-05-19T08:53:40.961Z,701.00
2023-05-19T08:54:40.880Z,722.00
2023-05-19T08:55:40.922Z,661.00
2023-05-19T08:56:40.974Z,695.00
2023-05-19T08:57:40.997Z,762.00
2023-05-19T08:58:41.000Z,718.00
2023-05-19T08:59:41.014Z,675.00
2023-05-19T09:00:41.068Z,664.00
2023-05-19T09:01:41.040Z,715.00
2023-05-19T09:02:50.502Z,711.00
2023-05-19T09:03:42.946Z,712.00
2023-05-19T09:04:41.078Z,715.00
2023-05-19T09:05:41.074Z,727.00
2023-05-19T09:06:41.048Z,768.00
2023-05-19T09:07:41.030Z,765.00
2023-05-19T09:08:41.045Z,812.00
2023-05-19T09:09:41.124Z,834.00
2023-05-19T09:10:41.026Z,826.00
2023-05-19T09:11:41.020Z,837.00
2023-05-19T09:12:41.008Z,773.00
2023-05-19T09:13:41.028Z,788.00
2023-05-19T09:14:40.988Z,760.00
2023-05-19T09:15:40.991Z,806.00
2023-05-19T09:16:41.046Z,791.00
2023-05-19T09:17:41.121Z,799.00
2023-05-19T09:18:41.253Z,806.00
2023-05-19T09:19:41.218Z,809.00
2023-05-19T09:20:41.276Z,805.00
2023-05-19T09:21:41.342Z,805.00
2023-05-19T09:22:41.391Z,798.00
2023-05-19T09:23:41.460Z,814.00
2023-05-19T09:24:41.535Z,753.00
2023-05-19T09:25:41.539Z,765.00
2023-05-19T09:26:41.683Z,752.00
2023-05-19T09:27:41.694Z,755.00
2023-05-19T09:28:41.757Z,771.00
2023-05-19T09:29:41.817Z,795.00
2023-05-19T09:30:41.854Z,775.00
2023-05-19T09:31:41.955Z,803.00
2023-05-19T09:32:42.041Z,803.00
2023-05-19T09:33:45.254Z,800.00
2023-05-19T09:34:42.073Z,795.00
2023-05-19T09:35:42.055Z,837.00
2023-05-19T09:36:42.060Z,840.00
2023-05-19T09:37:42.025Z,815.00
2023-05-19T09:38:42.024Z,841.00
2023-05-19T09:39:42.021Z,779.00
2023-05-19T09:40:41.991Z,802.00
2023-05-19T09:41:41.972Z,811.00
2023-05-19T09:42:42.000Z,804.00
2023-05-19T09:43:42.016Z,772.00
2023-05-19T09:44:41.972Z,774.00
2023-05-19T09:45:41.961Z,781.00
2023-05-19T09:46:42.045Z,784.00
2023-05-19T09:47:42.005Z,769.00
2023-05-19T09:48:41.950Z,774.00
2023-05-19T09:49:41.937Z,784.00
2023-05-19T09:50:41.957Z,774.00
2023-05-19T09:51:41.892Z,779.00
2023-05-19T09:52:41.913Z,779.00
2023-05-19T09:53:41.931Z,755.00
2023-05-19T09:54:41.920Z,786.00
2023-05-19T09:55:41.895Z,825.00
2023-05-19T09:56:41.899Z,815.00
2023-05-19T09:57:41.914Z,826.00
2023-05-19T09:58:41.906Z,836.00
2023-05-19T09:59:41.870Z,827.00
2023-05-19T10:01:30.612Z,500.00
2023-05-19T10:02:30.604Z,500.00
2023-05-19T10:03:30.567Z,500.00
2023-05-19T10:04:30.607Z,500.00
2023-05-19T10:05:30.558Z,500.00
2023-05-19T10:06:30.564Z,500.00
2023-05-19T10:07:30.525Z,510.00
2023-05-19T10:08:30.855Z,515.00
2023-05-19T10:09:30.527Z,505.00
2023-05-19T10:10:30.520Z,507.00
2023-05-19T10:11:30.515Z,508.00
2023-05-19T10:12:30.534Z,529.00
2023-05-19T10:13:30.530Z,544.00
2023-05-19T10:14:30.488Z,531.00
2023-05-19T10:15:30.572Z,534.00
2023-05-19T10:16:30.539Z,520.00
2023-05-19T10:17:30.522Z,528.00
2023-05-19T10:18:30.471Z,519.00
2023-05-19T10:19:30.459Z,515.00
2023-05-19T10:20:30.607Z,500.00
2023-05-19T10:21:30.432Z,500.00
2023-05-19T10:22:30.435Z,500.00
2023-05-19T10:23:30.531Z,500.00
2023-05-19T10:24:30.408Z,504.00
2023-05-19T10:25:30.504Z,515.00
2023-05-19T10:26:30.409Z,514.00
2023-05-19T10:27:30.408Z,521.00
2023-05-19T10:28:30.399Z,531.00
2023-05-19T10:29:30.378Z,533.00
2023-05-19T10:30:30.372Z,532.00
2023-05-19T10:31:30.425Z,519.00
2023-05-19T10:32:30.463Z,525.00
2023-05-19T10:33:30.377Z,524.00
2023-05-19T10:34:30.361Z,538.00
2023-05-19T10:35:32.012Z,543.00
2023-05-19T10:36:30.336Z,557.00
2023-05-19T10:37:30.342Z,546.00
2023-05-19T10:38:30.355Z,549.00
2023-05-19T10:39:30.299Z,543.00
2023-05-19T10:40:30.306Z,545.00
2023-05-19T10:41:30.305Z,551.00
2023-05-19T10:42:30.318Z,556.00
2023-05-19T10:43:30.286Z,568.00
2023-05-19T10:44:30.282Z,560.00
2023-05-19T10:45:30.372Z,544.00
2023-05-19T10:46:30.436Z,542.00
2023-05-19T10:47:30.437Z,546.00
2023-05-19T10:48:30.459Z,544.00
2023-05-19T10:49:30.482Z,548.00
2023-05-19T10:50:30.507Z,513.00
2023-05-19T10:51:30.498Z,521.00
2023-05-19T10:52:30.544Z,519.00
2023-05-19T10:53:30.589Z,531.00
2023-05-19T10:54:30.647Z,530.00
2023-05-19T10:55:30.889Z,527.00
2023-05-19T10:56:30.726Z,533.00
2023-05-19T10:57:30.724Z,533.00
2023-05-19T10:58:30.754Z,531.00
2023-05-19T10:59:30.771Z,542.00
2023-05-19T11:00:30.883Z,529.00
2023-05-19T11:01:30.905Z,537.00
2023-05-19T11:02:30.924Z,529.00
2023-05-19T11:03:30.945Z,540.00
2023-05-19T11:04:30.945Z,553.00
2023-05-19T11:05:31.309Z,551.00
2023-05-19T11:06:30.989Z,549.00
2023-05-19T11:07:31.031Z,545.00
2023-05-19T11:08:31.024Z,549.00
2023-05-19T11:09:40.082Z,544.00
2023-05-19T11:10:32.080Z,544.00
2023-05-19T11:11:32.624Z,544.00
2023-05-19T11:12:31.062Z,544.00
2023-05-19T11:13:31.035Z,550.00
2023-05-19T11:14:31.030Z,558.00
2023-05-19T11:15:31.200Z,557.00
2023-05-19T11:16:31.098Z,554.00
2023-05-19T11:17:32.696Z,564.00
2023-05-19T11:18:31.006Z,552.00
2023-05-19T11:19:31.028Z,562.00
2023-05-19T11:20:30.986Z,560.00
2023-05-19T11:21:31.051Z,564.00
2023-05-19T11:22:30.964Z,553.00
2023-05-19T11:23:32.738Z,560.00
2023-05-19T11:24:31.053Z,561.00
2023-05-19T11:25:31.176Z,565.00
2023-05-19T11:26:31.069Z,557.00
2023-05-19T11:27:31.225Z,561.00
2023-05-19T11:28:31.098Z,566.00
2023-05-19T11:29:32.332Z,571.00
2023-05-19T11:30:31.144Z,582.00
2023-05-19T11:31:31.222Z,587.00
2023-05-19T11:32:31.259Z,575.00
2023-05-19T11:33:31.234Z,579.00
2023-05-19T11:34:31.254Z,573.00
2023-05-19T11:35:33.239Z,570.00
2023-05-19T11:36:31.269Z,569.00
2023-05-19T11:37:31.267Z,575.00
2023-05-19T11:38:31.230Z,580.00
2023-05-19T11:39:31.251Z,579.00
2023-05-19T11:40:31.291Z,579.00
2023-05-19T11:41:31.214Z,574.00
2023-05-19T11:42:31.208Z,579.00
2023-05-19T11:43:31.195Z,578.00
2023-05-19T11:44:31.201Z,581.00
2023-05-19T11:45:31.405Z,588.00
2023-05-19T11:46:31.250Z,595.00
2023-05-19T11:47:36.182Z,590.00
2023-05-19T11:48:32.176Z,591.00
2023-05-19T11:49:31.212Z,593.00
2023-05-19T11:50:31.215Z,593.00
2023-05-19T11:51:31.165Z,599.00
2023-05-19T11:52:31.182Z,607.00
2023-05-19T11:53:32.232Z,599.00
2023-05-19T11:54:31.161Z,585.00
2023-05-19T11:55:31.135Z,595.00
2023-05-19T11:56:31.119Z,601.00
2023-05-19T11:57:31.135Z,600.00
2023-05-19T11:58:31.142Z,583.00
2023-05-19T11:59:31.755Z,581.00
2023-05-19T12:00:31.108Z,587.00
2023-05-19T12:01:31.110Z,585.00
2023-05-19T12:02:31.161Z,590.00
2023-05-19T12:03:31.195Z,596.00
2023-05-19T12:04:31.164Z,605.00
2023-05-19T12:05:33.606Z,600.00
2023-05-19T12:06:31.184Z,613.00
2023-05-19T12:07:31.173Z,599.00
2023-05-19T12:08:31.147Z,591.00
2023-05-19T12:09:31.137Z,597.00
2023-05-19T12:10:31.126Z,581.00
2023-05-19T12:11:31.143Z,577.00
2023-05-19T12:12:31.133Z,573.00
2023-05-19T12:13:31.085Z,577.00
2023-05-19T12:14:31.083Z,572.00
2023-05-19T12:15:31.427Z,554.00
2023-05-19T12:16:32.627Z,573.00
2023-05-19T12:17:31.071Z,566.00
2023-05-19T12:18:31.067Z,554.00
2023-05-19T12:19:31.078Z,547.00